sensor_id;sensor_type;location;lat;lon;timestamp;P1;durP1;ratioP1;P2;durP2;ratioP2
68455;SDS011;55437;55.046;38.838;2023-05-07T00:01:33;11.27;;;4.07;;
68455;SDS011;55437;55.046;38.838;2023-05-07T00:03:59;9.60;;;3.97;;
68455;SDS011;55437;55.046;38.838;2023-05-07T00:06:25;10.77;;;4.90;;
68455;SDS011;55437;55.046;38.838;2023-05-07T00:08:52;12.40;;;5.13;;
68455;SDS011;55437;55.046;38.838;2023-05-07T00:11:18;11.73;;;4.75;;
68455;SDS011;55437;55.046;38.838;2023-05-07T00:13:44;11.77;;;4.45;;
68455;SDS011;55437;55.046;38.838;2023-05-07T00:16:29;12.35;;;5.32;;
68455;SDS011;55437;55.046;38.838;2023-05-07T00:18:54;10.52;;;4.25;;
68455;SDS011;55437;55.046;38.838;2023-05-07T00:21:20;11.93;;;4.53;;
68455;SDS011;55437;55.046;38.838;2023-05-07T00:23:46;14.23;;;5.18;;
68455;SDS011;55437;55.046;38.838;2023-05-07T00:26:12;12.15;;;4.93;;
68455;SDS011;55437;55.046;38.838;2023-05-07T00:28:39;13.68;;;4.97;;
68455;SDS011;55437;55.046;38.838;2023-05-07T00:31:05;13.25;;;5.18;;
68455;SDS011;55437;55.046;38.838;2023-05-07T00:33:31;12.90;;;5.00;;
68455;SDS011;55437;55.046;38.838;2023-05-07T00:35:56;10.85;;;4.97;;
68455;SDS011;55437;55.046;38.838;2023-05-07T00:38:22;10.95;;;4.97;;
68455;SDS011;55437;55.046;38.838;2023-05-07T00:40:48;11.07;;;4.75;;
68455;SDS011;55437;55.046;38.838;2023-05-07T00:43:14;16.50;;;4.95;;
68455;SDS011;55437;55.046;38.838;2023-05-07T00:45:41;11.48;;;5.22;;
68455;SDS011;55437;55.046;38.838;2023-05-07T00:48:06;11.75;;;4.85;;
68455;SDS011;55437;55.046;38.838;2023-05-07T00:50:32;13.90;;;5.55;;
68455;SDS011;55437;55.046;38.838;2023-05-07T00:52:58;16.40;;;5.35;;
68455;SDS011;55437;55.046;38.838;2023-05-07T00:55:25;12.98;;;5.35;;
68455;SDS011;55437;55.046;38.838;2023-05-07T00:57:52;12.55;;;5.80;;
68455;SDS011;55437;55.046;38.838;2023-05-07T01:00:18;13.52;;;6.10;;
68455;SDS011;55437;55.046;38.838;2023-05-07T01:02:45;12.38;;;5.43;;
68455;SDS011;55437;55.046;38.838;2023-05-07T01:05:12;14.23;;;5.80;;
68455;SDS011;55437;55.046;38.838;2023-05-07T01:07:40;15.05;;;5.88;;
68455;SDS011;55437;55.046;38.838;2023-05-07T01:10:07;12.68;;;5.97;;
68455;SDS011;55437;55.046;38.838;2023-05-07T01:12:35;16.38;;;5.30;;
68455;SDS011;55437;55.046;38.838;2023-05-07T01:15:03;12.75;;;5.88;;
68455;SDS011;55437;55.046;38.838;2023-05-07T01:17:34;11.90;;;5.65;;
68455;SDS011;55437;55.046;38.838;2023-05-07T01:20:20;16.20;;;5.95;;
68455;SDS011;55437;55.046;38.838;2023-05-07T01:22:48;11.68;;;5.43;;
68455;SDS011;55437;55.046;38.838;2023-05-07T01:25:15;11.20;;;4.95;;
68455;SDS011;55437;55.046;38.838;2023-05-07T01:27:46;16.08;;;6.15;;
68455;SDS011;55437;55.046;38.838;2023-05-07T01:30:12;15.82;;;6.60;;
68455;SDS011;55437;55.046;38.838;2023-05-07T01:35:21;13.35;;;5.53;;
68455;SDS011;55437;55.046;38.838;2023-05-07T01:37:50;13.02;;;6.10;;
68455;SDS011;55437;55.046;38.838;2023-05-07T01:40:16;16.25;;;5.75;;
68455;SDS011;55437;55.046;38.838;2023-05-07T01:42:43;11.93;;;5.28;;
68455;SDS011;55437;55.046;38.838;2023-05-07T01:45:09;11.77;;;5.28;;
68455;SDS011;55437;55.046;38.838;2023-05-07T01:47:36;12.65;;;6.00;;
68455;SDS011;55437;55.046;38.838;2023-05-07T01:50:03;16.70;;;5.78;;
68455;SDS011;55437;55.046;38.838;2023-05-07T01:52:31;13.23;;;5.20;;
68455;SDS011;55437;55.046;38.838;2023-05-07T01:54:57;10.55;;;4.97;;
68455;SDS011;55437;55.046;38.838;2023-05-07T01:57:23;14.18;;;5.68;;
68455;SDS011;55437;55.046;38.838;2023-05-07T01:59:48;13.70;;;5.90;;
68455;SDS011;55437;55.046;38.838;2023-05-07T02:02:14;14.55;;;6.03;;
68455;SDS011;55437;55.046;38.838;2023-05-07T02:04:43;13.52;;;5.80;;
68455;SDS011;55437;55.046;38.838;2023-05-07T02:07:09;12.70;;;5.38;;
68455;SDS011;55437;55.046;38.838;2023-05-07T02:09:36;16.70;;;4.93;;
68455;SDS011;55437;55.046;38.838;2023-05-07T02:12:02;18.85;;;5.85;;
68455;SDS011;55437;55.046;38.838;2023-05-07T02:14:28;15.40;;;5.70;;
68455;SDS011;55437;55.046;38.838;2023-05-07T02:16:54;11.35;;;5.03;;
68455;SDS011;55437;55.046;38.838;2023-05-07T02:19:20;11.30;;;5.28;;
68455;SDS011;55437;55.046;38.838;2023-05-07T02:21:47;13.18;;;5.60;;
68455;SDS011;55437;55.046;38.838;2023-05-07T02:24:13;13.65;;;5.55;;
68455;SDS011;55437;55.046;38.838;2023-05-07T02:26:39;10.98;;;5.22;;
68455;SDS011;55437;55.046;38.838;2023-05-07T02:29:06;10.55;;;4.28;;
68455;SDS011;55437;55.046;38.838;2023-05-07T02:31:32;14.10;;;5.32;;
68455;SDS011;55437;55.046;38.838;2023-05-07T02:34:00;13.20;;;5.07;;
68455;SDS011;55437;55.046;38.838;2023-05-07T02:36:26;13.85;;;5.05;;
68455;SDS011;55437;55.046;38.838;2023-05-07T02:39:06;13.07;;;5.43;;
68455;SDS011;55437;55.046;38.838;2023-05-07T02:41:32;13.25;;;6.03;;
68455;SDS011;55437;55.046;38.838;2023-05-07T02:43:58;10.60;;;5.20;;
68455;SDS011;55437;55.046;38.838;2023-05-07T02:46:25;11.23;;;5.25;;
68455;SDS011;55437;55.046;38.838;2023-05-07T02:48:58;10.52;;;5.30;;
68455;SDS011;55437;55.046;38.838;2023-05-07T02:51:23;13.02;;;5.43;;
68455;SDS011;55437;55.046;38.838;2023-05-07T02:53:52;12.25;;;5.65;;
68455;SDS011;55437;55.046;38.838;2023-05-07T02:56:17;14.25;;;5.45;;
68455;SDS011;55437;55.046;38.838;2023-05-07T02:58:43;12.38;;;5.68;;
68455;SDS011;55437;55.046;38.838;2023-05-07T03:01:10;13.40;;;5.80;;
68455;SDS011;55437;55.046;38.838;2023-05-07T03:03:46;12.32;;;5.70;;
68455;SDS011;55437;55.046;38.838;2023-05-07T03:06:12;12.00;;;5.43;;
68455;SDS011;55437;55.046;38.838;2023-05-07T03:08:38;13.25;;;5.95;;
68455;SDS011;55437;55.046;38.838;2023-05-07T03:11:03;13.70;;;6.25;;
68455;SDS011;55437;55.046;38.838;2023-05-07T03:13:29;10.95;;;5.35;;
68455;SDS011;55437;55.046;38.838;2023-05-07T03:15:55;11.38;;;5.22;;
68455;SDS011;55437;55.046;38.838;2023-05-07T03:18:21;12.52;;;5.75;;
68455;SDS011;55437;55.046;38.838;2023-05-07T03:20:47;17.95;;;5.80;;
68455;SDS011;55437;55.046;38.838;2023-05-07T03:23:14;12.57;;;5.93;;
68455;SDS011;55437;55.046;38.838;2023-05-07T03:25:40;11.85;;;5.47;;
68455;SDS011;55437;55.046;38.838;2023-05-07T03:28:06;11.82;;;6.07;;
68455;SDS011;55437;55.046;38.838;2023-05-07T03:30:47;10.88;;;5.63;;
68455;SDS011;55437;55.046;38.838;2023-05-07T03:33:13;13.18;;;5.40;;
68455;SDS011;55437;55.046;38.838;2023-05-07T03:35:39;9.70;;;5.38;;
68455;SDS011;55437;55.046;38.838;2023-05-07T03:38:07;11.75;;;5.05;;
68455;SDS011;55437;55.046;38.838;2023-05-07T03:40:35;11.25;;;5.72;;
68455;SDS011;55437;55.046;38.838;2023-05-07T03:43:02;12.15;;;5.28;;
68455;SDS011;55437;55.046;38.838;2023-05-07T03:45:30;12.00;;;5.60;;
68455;SDS011;55437;55.046;38.838;2023-05-07T03:48:08;12.30;;;4.80;;
68455;SDS011;55437;55.046;38.838;2023-05-07T03:50:52;15.50;;;5.90;;
68455;SDS011;55437;55.046;38.838;2023-05-07T03:53:19;12.38;;;5.15;;
68455;SDS011;55437;55.046;38.838;2023-05-07T03:55:45;12.00;;;5.57;;
68455;SDS011;55437;55.046;38.838;2023-05-07T03:58:11;11.85;;;4.85;;
68455;SDS011;55437;55.046;38.838;2023-05-07T04:00:37;11.68;;;5.35;;
68455;SDS011;55437;55.046;38.838;2023-05-07T04:05:39;12.77;;;5.45;;
68455;SDS011;55437;55.046;38.838;2023-05-07T04:08:05;13.18;;;5.85;;
68455;SDS011;55437;55.046;38.838;2023-05-07T04:10:38;14.23;;;6.40;;
68455;SDS011;55437;55.046;38.838;2023-05-07T04:15:35;14.43;;;6.85;;
68455;SDS011;55437;55.046;38.838;2023-05-07T04:18:01;15.25;;;6.03;;
68455;SDS011;55437;55.046;38.838;2023-05-07T04:20:27;18.48;;;6.25;;
68455;SDS011;55437;55.046;38.838;2023-05-07T04:22:59;14.07;;;5.30;;
68455;SDS011;55437;55.046;38.838;2023-05-07T04:25:25;15.00;;;6.20;;
68455;SDS011;55437;55.046;38.838;2023-05-07T04:27:55;15.38;;;6.18;;
68455;SDS011;55437;55.046;38.838;2023-05-07T04:30:24;13.35;;;5.57;;
68455;SDS011;55437;55.046;38.838;2023-05-07T04:32:50;11.60;;;4.80;;
68455;SDS011;55437;55.046;38.838;2023-05-07T04:35:17;15.65;;;5.60;;
68455;SDS011;55437;55.046;38.838;2023-05-07T04:37:43;14.43;;;6.07;;
68455;SDS011;55437;55.046;38.838;2023-05-07T04:40:10;14.07;;;6.18;;
68455;SDS011;55437;55.046;38.838;2023-05-07T04:42:36;13.00;;;6.03;;
68455;SDS011;55437;55.046;38.838;2023-05-07T04:45:02;12.38;;;5.00;;
68455;SDS011;55437;55.046;38.838;2023-05-07T04:47:32;10.35;;;4.80;;
68455;SDS011;55437;55.046;38.838;2023-05-07T04:50:00;12.18;;;4.82;;
68455;SDS011;55437;55.046;38.838;2023-05-07T04:52:26;10.55;;;4.68;;
68455;SDS011;55437;55.046;38.838;2023-05-07T04:54:52;12.93;;;5.15;;
68455;SDS011;55437;55.046;38.838;2023-05-07T04:57:18;10.88;;;4.38;;
68455;SDS011;55437;55.046;38.838;2023-05-07T04:59:44;11.40;;;5.43;;
68455;SDS011;55437;55.046;38.838;2023-05-07T05:02:11;11.55;;;5.07;;
68455;SDS011;55437;55.046;38.838;2023-05-07T05:04:37;12.23;;;5.25;;
68455;SDS011;55437;55.046;38.838;2023-05-07T05:07:04;10.93;;;5.13;;
68455;SDS011;55437;55.046;38.838;2023-05-07T05:09:30;13.00;;;5.55;;
68455;SDS011;55437;55.046;38.838;2023-05-07T05:11:56;12.10;;;5.07;;
68455;SDS011;55437;55.046;38.838;2023-05-07T05:14:22;10.98;;;5.18;;
68455;SDS011;55437;55.046;38.838;2023-05-07T05:16:49;10.63;;;5.07;;
68455;SDS011;55437;55.046;38.838;2023-05-07T05:19:15;10.20;;;4.40;;
68455;SDS011;55437;55.046;38.838;2023-05-07T05:21:42;9.43;;;3.80;;
68455;SDS011;55437;55.046;38.838;2023-05-07T05:24:09;10.45;;;3.55;;
68455;SDS011;55437;55.046;38.838;2023-05-07T05:26:35;7.18;;;3.38;;
68455;SDS011;55437;55.046;38.838;2023-05-07T05:29:02;9.48;;;3.55;;
68455;SDS011;55437;55.046;38.838;2023-05-07T05:31:29;10.20;;;3.90;;
68455;SDS011;55437;55.046;38.838;2023-05-07T05:33:56;6.55;;;2.72;;
68455;SDS011;55437;55.046;38.838;2023-05-07T05:36:41;9.32;;;3.40;;
68455;SDS011;55437;55.046;38.838;2023-05-07T05:39:08;9.10;;;2.95;;
68455;SDS011;55437;55.046;38.838;2023-05-07T05:41:34;9.70;;;3.33;;
68455;SDS011;55437;55.046;38.838;2023-05-07T05:44:01;8.75;;;2.42;;
68455;SDS011;55437;55.046;38.838;2023-05-07T05:46:27;7.57;;;2.78;;
68455;SDS011;55437;55.046;38.838;2023-05-07T05:48:53;7.60;;;2.92;;
68455;SDS011;55437;55.046;38.838;2023-05-07T05:51:20;8.07;;;3.10;;
68455;SDS011;55437;55.046;38.838;2023-05-07T05:53:46;9.10;;;3.33;;
68455;SDS011;55437;55.046;38.838;2023-05-07T05:56:12;12.02;;;3.10;;
68455;SDS011;55437;55.046;38.838;2023-05-07T05:58:40;8.18;;;2.78;;
68455;SDS011;55437;55.046;38.838;2023-05-07T06:01:07;6.68;;;2.53;;
68455;SDS011;55437;55.046;38.838;2023-05-07T06:03:35;6.97;;;2.50;;
68455;SDS011;55437;55.046;38.838;2023-05-07T06:06:05;6.47;;;2.40;;
68455;SDS011;55437;55.046;38.838;2023-05-07T06:08:31;9.68;;;2.50;;
68455;SDS011;55437;55.046;38.838;2023-05-07T06:10:58;7.95;;;2.53;;
68455;SDS011;55437;55.046;38.838;2023-05-07T06:13:25;12.00;;;2.80;;
68455;SDS011;55437;55.046;38.838;2023-05-07T06:15:50;8.63;;;1.90;;
68455;SDS011;55437;55.046;38.838;2023-05-07T06:18:16;9.15;;;2.08;;
68455;SDS011;55437;55.046;38.838;2023-05-07T06:20:42;9.77;;;2.95;;
68455;SDS011;55437;55.046;38.838;2023-05-07T06:23:15;7.15;;;2.15;;
68455;SDS011;55437;55.046;38.838;2023-05-07T06:25:42;7.60;;;2.30;;
68455;SDS011;55437;55.046;38.838;2023-05-07T06:28:11;10.20;;;2.22;;
68455;SDS011;55437;55.046;38.838;2023-05-07T06:30:39;12.35;;;3.63;;
68455;SDS011;55437;55.046;38.838;2023-05-07T06:33:06;6.05;;;2.22;;
68455;SDS011;55437;55.046;38.838;2023-05-07T06:35:32;10.45;;;2.70;;
68455;SDS011;55437;55.046;38.838;2023-05-07T06:37:58;5.38;;;1.90;;
68455;SDS011;55437;55.046;38.838;2023-05-07T06:40:26;8.27;;;2.13;;
68455;SDS011;55437;55.046;38.838;2023-05-07T06:42:52;7.53;;;2.67;;
68455;SDS011;55437;55.046;38.838;2023-05-07T06:45:41;6.82;;;2.20;;
68455;SDS011;55437;55.046;38.838;2023-05-07T06:48:08;7.63;;;2.33;;
68455;SDS011;55437;55.046;38.838;2023-05-07T06:50:44;6.10;;;2.00;;
68455;SDS011;55437;55.046;38.838;2023-05-07T06:53:11;7.50;;;2.67;;
68455;SDS011;55437;55.046;38.838;2023-05-07T06:55:36;8.55;;;2.83;;
68455;SDS011;55437;55.046;38.838;2023-05-07T06:58:04;8.50;;;2.58;;
68455;SDS011;55437;55.046;38.838;2023-05-07T07:00:31;6.35;;;2.28;;
68455;SDS011;55437;55.046;38.838;2023-05-07T07:02:57;8.00;;;2.20;;
68455;SDS011;55437;55.046;38.838;2023-05-07T07:05:26;7.53;;;2.55;;
68455;SDS011;55437;55.046;38.838;2023-05-07T07:07:52;8.05;;;2.33;;
68455;SDS011;55437;55.046;38.838;2023-05-07T07:10:19;7.00;;;2.60;;
68455;SDS011;55437;55.046;38.838;2023-05-07T07:15:39;4.80;;;2.00;;
68455;SDS011;55437;55.046;38.838;2023-05-07T07:18:06;6.65;;;2.10;;
68455;SDS011;55437;55.046;38.838;2023-05-07T07:20:32;6.47;;;2.08;;
68455;SDS011;55437;55.046;38.838;2023-05-07T07:23:16;6.80;;;2.47;;
68455;SDS011;55437;55.046;38.838;2023-05-07T07:25:42;7.55;;;2.90;;
68455;SDS011;55437;55.046;38.838;2023-05-07T07:28:08;9.40;;;2.45;;
68455;SDS011;55437;55.046;38.838;2023-05-07T07:30:37;9.25;;;2.83;;
68455;SDS011;55437;55.046;38.838;2023-05-07T07:33:02;6.65;;;2.40;;
68455;SDS011;55437;55.046;38.838;2023-05-07T07:35:33;8.00;;;3.10;;
68455;SDS011;55437;55.046;38.838;2023-05-07T07:37:59;7.57;;;2.70;;
68455;SDS011;55437;55.046;38.838;2023-05-07T07:40:25;7.50;;;2.55;;
68455;SDS011;55437;55.046;38.838;2023-05-07T07:42:51;6.82;;;2.28;;
68455;SDS011;55437;55.046;38.838;2023-05-07T07:45:18;11.07;;;2.47;;
68455;SDS011;55437;55.046;38.838;2023-05-07T07:47:47;8.98;;;2.38;;
68455;SDS011;55437;55.046;38.838;2023-05-07T07:50:13;6.63;;;2.10;;
68455;SDS011;55437;55.046;38.838;2023-05-07T07:52:39;8.65;;;1.80;;
68455;SDS011;55437;55.046;38.838;2023-05-07T07:55:07;5.57;;;2.38;;
68455;SDS011;55437;55.046;38.838;2023-05-07T07:57:34;7.15;;;2.00;;
68455;SDS011;55437;55.046;38.838;2023-05-07T08:00:00;8.55;;;2.00;;
68455;SDS011;55437;55.046;38.838;2023-05-07T08:02:31;9.00;;;1.90;;
68455;SDS011;55437;55.046;38.838;2023-05-07T08:04:57;9.02;;;1.98;;
68455;SDS011;55437;55.046;38.838;2023-05-07T08:07:23;7.88;;;2.50;;
68455;SDS011;55437;55.046;38.838;2023-05-07T08:09:49;7.18;;;2.72;;
68455;SDS011;55437;55.046;38.838;2023-05-07T08:12:19;6.70;;;2.60;;
68455;SDS011;55437;55.046;38.838;2023-05-07T08:14:47;6.85;;;2.22;;
68455;SDS011;55437;55.046;38.838;2023-05-07T08:17:14;6.13;;;2.10;;
68455;SDS011;55437;55.046;38.838;2023-05-07T08:19:42;5.63;;;2.25;;
68455;SDS011;55437;55.046;38.838;2023-05-07T08:22:12;9.45;;;2.35;;
68455;SDS011;55437;55.046;38.838;2023-05-07T08:24:38;6.68;;;2.40;;
68455;SDS011;55437;55.046;38.838;2023-05-07T08:27:05;7.45;;;2.42;;
68455;SDS011;55437;55.046;38.838;2023-05-07T08:29:31;6.93;;;2.53;;
68455;SDS011;55437;55.046;38.838;2023-05-07T08:31:58;5.78;;;2.22;;
68455;SDS011;55437;55.046;38.838;2023-05-07T08:34:24;11.05;;;2.70;;
68455;SDS011;55437;55.046;38.838;2023-05-07T08:36:52;8.68;;;2.70;;
68455;SDS011;55437;55.046;38.838;2023-05-07T08:39:43;7.18;;;1.98;;
68455;SDS011;55437;55.046;38.838;2023-05-07T08:42:16;9.30;;;3.40;;
68455;SDS011;55437;55.046;38.838;2023-05-07T08:44:45;9.10;;;2.08;;
68455;SDS011;55437;55.046;38.838;2023-05-07T08:47:13;6.05;;;2.00;;
68455;SDS011;55437;55.046;38.838;2023-05-07T08:49:39;6.43;;;1.70;;
68455;SDS011;55437;55.046;38.838;2023-05-07T08:52:07;6.22;;;2.40;;
68455;SDS011;55437;55.046;38.838;2023-05-07T08:54:33;9.70;;;2.53;;
68455;SDS011;55437;55.046;38.838;2023-05-07T08:57:02;8.63;;;2.63;;
68455;SDS011;55437;55.046;38.838;2023-05-07T08:59:29;8.63;;;2.70;;
68455;SDS011;55437;55.046;38.838;2023-05-07T09:01:56;6.70;;;2.17;;
68455;SDS011;55437;55.046;38.838;2023-05-07T09:04:22;6.78;;;2.20;;
68455;SDS011;55437;55.046;38.838;2023-05-07T09:06:48;7.18;;;2.05;;
68455;SDS011;55437;55.046;38.838;2023-05-07T09:09:19;9.73;;;2.17;;
68455;SDS011;55437;55.046;38.838;2023-05-07T09:11:54;6.28;;;2.08;;
68455;SDS011;55437;55.046;38.838;2023-05-07T09:14:25;6.25;;;2.05;;
68455;SDS011;55437;55.046;38.838;2023-05-07T09:16:54;6.97;;;2.25;;
68455;SDS011;55437;55.046;38.838;2023-05-07T09:19:23;9.27;;;2.33;;
68455;SDS011;55437;55.046;38.838;2023-05-07T09:22:01;7.65;;;2.55;;
68455;SDS011;55437;55.046;38.838;2023-05-07T09:24:35;8.18;;;2.40;;
68455;SDS011;55437;55.046;38.838;2023-05-07T09:27:21;5.32;;;2.10;;
68455;SDS011;55437;55.046;38.838;2023-05-07T09:29:47;6.78;;;2.78;;
68455;SDS011;55437;55.046;38.838;2023-05-07T09:32:15;7.60;;;2.30;;
68455;SDS011;55437;55.046;38.838;2023-05-07T09:34:41;9.23;;;2.88;;
68455;SDS011;55437;55.046;38.838;2023-05-07T09:37:08;7.22;;;2.40;;
68455;SDS011;55437;55.046;38.838;2023-05-07T09:39:44;8.13;;;2.67;;
68455;SDS011;55437;55.046;38.838;2023-05-07T09:42:13;5.80;;;2.40;;
68455;SDS011;55437;55.046;38.838;2023-05-07T09:44:41;8.88;;;2.30;;
68455;SDS011;55437;55.046;38.838;2023-05-07T09:47:12;6.75;;;2.47;;
68455;SDS011;55437;55.046;38.838;2023-05-07T09:49:47;6.85;;;2.47;;
68455;SDS011;55437;55.046;38.838;2023-05-07T09:52:16;9.52;;;2.67;;
68455;SDS011;55437;55.046;38.838;2023-05-07T09:54:47;6.85;;;2.20;;
68455;SDS011;55437;55.046;38.838;2023-05-07T09:57:16;7.03;;;2.38;;
68455;SDS011;55437;55.046;38.838;2023-05-07T09:59:49;5.43;;;2.38;;
68455;SDS011;55437;55.046;38.838;2023-05-07T10:02:18;7.00;;;2.65;;
68455;SDS011;55437;55.046;38.838;2023-05-07T10:04:49;7.65;;;2.80;;
68455;SDS011;55437;55.046;38.838;2023-05-07T10:07:20;12.45;;;2.85;;
68455;SDS011;55437;55.046;38.838;2023-05-07T10:09:49;12.10;;;3.25;;
68455;SDS011;55437;55.046;38.838;2023-05-07T10:12:29;8.10;;;2.83;;
68455;SDS011;55437;55.046;38.838;2023-05-07T10:15:01;9.13;;;2.30;;
68455;SDS011;55437;55.046;38.838;2023-05-07T10:17:30;7.53;;;2.33;;
68455;SDS011;55437;55.046;38.838;2023-05-07T10:19:57;7.38;;;2.40;;
68455;SDS011;55437;55.046;38.838;2023-05-07T10:22:23;6.22;;;2.55;;
68455;SDS011;55437;55.046;38.838;2023-05-07T10:24:53;7.70;;;2.60;;
68455;SDS011;55437;55.046;38.838;2023-05-07T10:27:21;8.32;;;2.15;;
68455;SDS011;55437;55.046;38.838;2023-05-07T10:35:06;9.18;;;2.85;;
68455;SDS011;55437;55.046;38.838;2023-05-07T10:37:39;7.43;;;2.90;;
68455;SDS011;55437;55.046;38.838;2023-05-07T10:40:06;7.30;;;2.80;;
68455;SDS011;55437;55.046;38.838;2023-05-07T10:42:33;6.65;;;2.50;;
68455;SDS011;55437;55.046;38.838;2023-05-07T10:45:11;10.27;;;2.83;;
68455;SDS011;55437;55.046;38.838;2023-05-07T10:48:04;7.20;;;3.05;;
68455;SDS011;55437;55.046;38.838;2023-05-07T10:50:35;7.40;;;2.38;;
68455;SDS011;55437;55.046;38.838;2023-05-07T10:59:45;6.10;;;2.30;;
68455;SDS011;55437;55.046;38.838;2023-05-07T11:04:29;6.18;;;2.17;;
68455;SDS011;55437;55.046;38.838;2023-05-07T11:07:24;6.18;;;2.05;;
68455;SDS011;55437;55.046;38.838;2023-05-07T11:09:58;5.82;;;2.03;;
68455;SDS011;55437;55.046;38.838;2023-05-07T11:12:53;9.55;;;2.63;;
68455;SDS011;55437;55.046;38.838;2023-05-07T11:18:54;7.68;;;2.50;;
68455;SDS011;55437;55.046;38.838;2023-05-07T11:21:37;6.38;;;2.35;;
68455;SDS011;55437;55.046;38.838;2023-05-07T11:26:50;10.63;;;2.30;;
68455;SDS011;55437;55.046;38.838;2023-05-07T11:29:20;5.75;;;2.28;;
68455;SDS011;55437;55.046;38.838;2023-05-07T11:31:48;7.97;;;2.60;;
68455;SDS011;55437;55.046;38.838;2023-05-07T11:34:22;6.85;;;2.30;;
68455;SDS011;55437;55.046;38.838;2023-05-07T11:36:51;7.80;;;2.20;;
68455;SDS011;55437;55.046;38.838;2023-05-07T11:39:27;8.30;;;2.72;;
68455;SDS011;55437;55.046;38.838;2023-05-07T11:41:54;8.10;;;2.60;;
68455;SDS011;55437;55.046;38.838;2023-05-07T11:44:20;7.00;;;2.70;;
68455;SDS011;55437;55.046;38.838;2023-05-07T11:46:46;8.07;;;2.35;;
68455;SDS011;55437;55.046;38.838;2023-05-07T11:49:12;5.72;;;2.33;;
68455;SDS011;55437;55.046;38.838;2023-05-07T11:51:38;7.07;;;2.60;;
68455;SDS011;55437;55.046;38.838;2023-05-07T11:54:04;12.90;;;4.50;;
68455;SDS011;55437;55.046;38.838;2023-05-07T11:56:34;8.13;;;2.40;;
68455;SDS011;55437;55.046;38.838;2023-05-07T11:59:04;8.13;;;2.33;;
68455;SDS011;55437;55.046;38.838;2023-05-07T12:01:30;6.88;;;2.72;;
68455;SDS011;55437;55.046;38.838;2023-05-07T12:03:57;7.40;;;2.65;;
68455;SDS011;55437;55.046;38.838;2023-05-07T12:06:22;8.13;;;2.50;;
68455;SDS011;55437;55.046;38.838;2023-05-07T12:08:49;8.18;;;2.58;;
68455;SDS011;55437;55.046;38.838;2023-05-07T12:11:16;5.95;;;2.30;;
68455;SDS011;55437;55.046;38.838;2023-05-07T12:13:47;6.50;;;2.70;;
68455;SDS011;55437;55.046;38.838;2023-05-07T12:16:13;6.55;;;2.33;;
68455;SDS011;55437;55.046;38.838;2023-05-07T12:18:40;8.90;;;2.38;;
68455;SDS011;55437;55.046;38.838;2023-05-07T12:21:07;6.03;;;2.10;;
68455;SDS011;55437;55.046;38.838;2023-05-07T12:23:33;7.55;;;2.40;;
68455;SDS011;55437;55.046;38.838;2023-05-07T12:26:01;7.45;;;2.63;;
68455;SDS011;55437;55.046;38.838;2023-05-07T12:28:29;8.70;;;2.40;;
68455;SDS011;55437;55.046;38.838;2023-05-07T12:30:56;7.40;;;2.30;;
68455;SDS011;55437;55.046;38.838;2023-05-07T12:33:26;7.22;;;2.50;;
68455;SDS011;55437;55.046;38.838;2023-05-07T12:35:54;6.93;;;2.40;;
68455;SDS011;55437;55.046;38.838;2023-05-07T12:38:21;7.05;;;2.35;;
68455;SDS011;55437;55.046;38.838;2023-05-07T12:40:48;6.05;;;2.10;;
68455;SDS011;55437;55.046;38.838;2023-05-07T12:43:20;10.15;;;2.75;;
68455;SDS011;55437;55.046;38.838;2023-05-07T12:45:48;8.93;;;2.80;;
68455;SDS011;55437;55.046;38.838;2023-05-07T12:48:15;9.52;;;3.40;;
68455;SDS011;55437;55.046;38.838;2023-05-07T12:50:41;7.50;;;2.28;;
68455;SDS011;55437;55.046;38.838;2023-05-07T12:53:09;7.53;;;2.40;;
68455;SDS011;55437;55.046;38.838;2023-05-07T12:55:41;6.53;;;2.35;;
68455;SDS011;55437;55.046;38.838;2023-05-07T12:58:14;7.32;;;2.05;;
68455;SDS011;55437;55.046;38.838;2023-05-07T13:01:05;5.95;;;2.30;;
68455;SDS011;55437;55.046;38.838;2023-05-07T13:03:36;6.20;;;2.47;;
68455;SDS011;55437;55.046;38.838;2023-05-07T13:06:03;7.40;;;2.72;;
68455;SDS011;55437;55.046;38.838;2023-05-07T13:08:49;7.25;;;2.75;;
68455;SDS011;55437;55.046;38.838;2023-05-07T13:11:15;7.97;;;2.90;;
68455;SDS011;55437;55.046;38.838;2023-05-07T13:13:41;8.20;;;2.80;;
68455;SDS011;55437;55.046;38.838;2023-05-07T13:16:08;10.23;;;3.33;;
68455;SDS011;55437;55.046;38.838;2023-05-07T13:18:36;8.38;;;3.25;;
68455;SDS011;55437;55.046;38.838;2023-05-07T13:21:03;10.07;;;3.00;;
68455;SDS011;55437;55.046;38.838;2023-05-07T13:23:32;8.82;;;3.13;;
68455;SDS011;55437;55.046;38.838;2023-05-07T13:25:59;7.88;;;2.45;;
68455;SDS011;55437;55.046;38.838;2023-05-07T13:28:25;8.55;;;2.50;;
68455;SDS011;55437;55.046;38.838;2023-05-07T13:30:52;5.68;;;1.98;;
68455;SDS011;55437;55.046;38.838;2023-05-07T13:33:18;5.75;;;2.00;;
68455;SDS011;55437;55.046;38.838;2023-05-07T13:35:44;6.10;;;2.30;;
68455;SDS011;55437;55.046;38.838;2023-05-07T13:38:10;6.00;;;2.40;;
68455;SDS011;55437;55.046;38.838;2023-05-07T13:40:37;7.10;;;2.90;;
68455;SDS011;55437;55.046;38.838;2023-05-07T13:43:02;6.60;;;2.10;;
68455;SDS011;55437;55.046;38.838;2023-05-07T13:45:29;7.85;;;2.50;;
68455;SDS011;55437;55.046;38.838;2023-05-07T13:47:55;7.25;;;2.22;;
68455;SDS011;55437;55.046;38.838;2023-05-07T13:50:22;7.00;;;2.80;;
68455;SDS011;55437;55.046;38.838;2023-05-07T13:52:48;6.95;;;2.20;;
68455;SDS011;55437;55.046;38.838;2023-05-07T13:55:20;6.30;;;2.20;;
68455;SDS011;55437;55.046;38.838;2023-05-07T13:57:47;6.22;;;2.05;;
68455;SDS011;55437;55.046;38.838;2023-05-07T14:00:19;6.10;;;2.08;;
68455;SDS011;55437;55.046;38.838;2023-05-07T14:02:45;7.35;;;2.38;;
68455;SDS011;55437;55.046;38.838;2023-05-07T14:05:11;5.30;;;2.03;;
68455;SDS011;55437;55.046;38.838;2023-05-07T14:07:38;6.35;;;2.50;;
68455;SDS011;55437;55.046;38.838;2023-05-07T14:10:04;7.40;;;2.25;;
68455;SDS011;55437;55.046;38.838;2023-05-07T14:12:32;9.98;;;2.80;;
68455;SDS011;55437;55.046;38.838;2023-05-07T14:14:58;15.23;;;5.32;;
68455;SDS011;55437;55.046;38.838;2023-05-07T14:17:25;11.60;;;2.92;;
68455;SDS011;55437;55.046;38.838;2023-05-07T14:19:53;9.77;;;2.97;;
68455;SDS011;55437;55.046;38.838;2023-05-07T14:22:20;8.20;;;2.97;;
68455;SDS011;55437;55.046;38.838;2023-05-07T14:24:47;7.03;;;3.05;;
68455;SDS011;55437;55.046;38.838;2023-05-07T14:27:14;9.20;;;2.50;;
68455;SDS011;55437;55.046;38.838;2023-05-07T14:29:59;7.15;;;2.30;;
68455;SDS011;55437;55.046;38.838;2023-05-07T14:32:25;8.73;;;2.78;;
68455;SDS011;55437;55.046;38.838;2023-05-07T14:34:51;10.65;;;2.70;;
68455;SDS011;55437;55.046;38.838;2023-05-07T14:37:17;6.93;;;2.78;;
68455;SDS011;55437;55.046;38.838;2023-05-07T14:39:45;9.38;;;2.80;;
68455;SDS011;55437;55.046;38.838;2023-05-07T14:42:10;10.35;;;2.72;;
68455;SDS011;55437;55.046;38.838;2023-05-07T14:44:38;13.75;;;3.03;;
68455;SDS011;55437;55.046;38.838;2023-05-07T14:47:06;12.05;;;3.15;;
68455;SDS011;55437;55.046;38.838;2023-05-07T14:49:33;11.88;;;3.67;;
68455;SDS011;55437;55.046;38.838;2023-05-07T14:52:00;9.13;;;2.95;;
68455;SDS011;55437;55.046;38.838;2023-05-07T14:54:26;12.68;;;5.28;;
68455;SDS011;55437;55.046;38.838;2023-05-07T14:56:52;11.90;;;4.60;;
68455;SDS011;55437;55.046;38.838;2023-05-07T14:59:18;8.35;;;3.70;;
68455;SDS011;55437;55.046;38.838;2023-05-07T15:01:46;10.57;;;4.80;;
68455;SDS011;55437;55.046;38.838;2023-05-07T15:04:13;11.65;;;4.30;;
68455;SDS011;55437;55.046;38.838;2023-05-07T15:06:39;12.30;;;4.05;;